Time,TemperatureF,DewpointF,PressureIn,WindDirection,WindDirectionDegrees,WindSpeedMPH,WindSpeedGustMPH,Humidity,HourlyPrecipIn,Conditions,Clouds,dailyrainin,SoftwareType,DateUTC
2013-08-22 00:00:00,57.0,54.7,29.90,WSW,253,0.0,0.0,92,0.00,,---,0.00,VWS V14.01,2013-08-22 07:00:00,
2013-08-22 00:05:00,57.0,54.7,29.90,WSW,253,0.0,0.0,92,0.00,,---,0.00,VWS V14.01,2013-08-22 07:05:00,
2013-08-22 00:10:00,56.9,54.9,29.90,WSW,253,0.0,0.0,93,0.00,,---,0.00,VWS V14.01,2013-08-22 07:10:00,
2013-08-22 00:15:00,56.9,54.9,29.90,WSW,253,0.0,0.0,93,0.00,,---,0.00,VWS V14.01,2013-08-22 07:15:00,
2013-08-22 00:20:00,56.7,54.7,29.90,WSW,253,0.0,0.0,93,0.00,,---,0.00,VWS V14.01,2013-08-22 07:20:00,
2013-08-22 00:25:00,56.6,54.6,29.90,WSW,253,0.0,0.0,93,0.00,,---,0.00,VWS V14.01,2013-08-22 07:25:00,
2013-08-22 00:30:00,56.5,54.5,29.90,WSW,253,0.0,0.0,93,0.00,,---,0.00,VWS V14.01,2013-08-22 07:30:00,
2013-08-22 00:36:00,56.3,54.0,29.90,WSW,253,0.0,0.0,92,0.00,,---,0.00,VWS V14.01,2013-08-22 07:36:00,
2013-08-22 00:41:00,56.2,53.9,29.90,WSW,253,0.0,0.0,92,0.00,,---,0.00,VWS V14.01,2013-08-22 07:41:00,
2013-08-22 00:46:00,56.0,53.7,29.90,WSW,253,0.0,0.0,92,0.00,,---,0.00,VWS V14.01,2013-08-22 07:46:00,
2013-08-22 00:51:00,55.9,53.6,29.90,WSW,253,0.0,0.0,92,0.00,,---,0.00,VWS V14.01,2013-08-22 07:51:00,
2013-08-22 00:56:00,55.7,53.4,29.90,WSW,253,0.0,0.0,92,0.00,,---,0.00,VWS V14.01,2013-08-22 07:56:00,
2013-08-22 01:01:00,55.6,53.3,29.90,WSW,253,0.0,0.0,92,0.00,,---,0.00,VWS V14.01,2013-08-22 08:01:00,
2013-08-22 01:06:00,55.4,53.1,29.90,WSW,253,0.0,0.0,92,0.00,,---,0.00,VWS V14.01,2013-08-22 08:06:00,
2013-08-22 01:11:00,55.1,52.8,29.90,WSW,253,0.0,0.0,92,0.00,,---,0.00,VWS V14.01,2013-08-22 08:11:00,
2013-08-22 01:16:00,55.0,53.0,29.90,WSW,253,0.0,0.0,93,0.00,,---,0.00,VWS V14.01,2013-08-22 08:16:00,
2013-08-22 01:21:00,54.8,52.8,29.90,WSW,253,0.0,0.0,93,0.00,,---,0.00,VWS V14.01,2013-08-22 08:21:00,
2013-08-22 01:26:00,54.7,52.7,29.90,WSW,253,0.0,0.0,93,0.00,,---,0.00,VWS V14.01,2013-08-22 08:26:00,
2013-08-22 01:31:00,54.7,52.7,29.90,WSW,253,0.0,0.0,93,0.00,,---,0.00,VWS V14.01,2013-08-22 08:31:00,
2013-08-22 01:36:00,54.7,52.7,29.89,WSW,253,0.0,0.0,93,0.00,,---,0.00,VWS V14.01,2013-08-22 08:36:00,
2013-08-22 01:42:00,54.7,52.7,29.89,WSW,253,0.0,0.0,93,0.00,,---,0.00,VWS V14.01,2013-08-22 08:42:00,
2013-08-22 01:47:00,54.7,52.7,29.89,WSW,253,0.0,0.0,93,0.00,,---,0.00,VWS V14.01,2013-08-22 08:47:00,
2013-08-22 01:52:00,54.7,52.7,29.89,WSW,253,0.0,0.0,93,0.00,,---,0.00,VWS V14.01,2013-08-22 08:52:00,
2013-08-22 01:57:00,54.5,52.5,29.89,WSW,253,0.0,0.0,93,0.00,,---,0.00,VWS V14.01,2013-08-22 08:57:00,
2013-08-22 02:02:00,54.4,52.4,29.89,WSW,253,0.0,0.0,93,0.00,,---,0.00,VWS V14.01,2013-08-22 09:02:00,
2013-08-22 02:07:00,54.2,52.2,29.89,WSW,253,0.0,0.0,93,0.00,,---,0.00,VWS V14.01,2013-08-22 09:07:00,
2013-08-22 02:12:00,54.2,52.5,29.89,WSW,253,0.0,0.0,94,0.00,,---,0.00,VWS V14.01,2013-08-22 09:12:00,
2013-08-22 02:17:00,54.1,52.1,29.89,WSW,253,0.0,0.0,93,0.00,,---,0.00,VWS V14.01,2013-08-22 09:17:00,
2013-08-22 02:22:00,54.1,52.4,29.89,WSW,253,0.0,0.0,94,0.00,,---,0.00,VWS V14.01,2013-08-22 09:22:00,
2013-08-22 02:27:00,54.1,52.4,29.89,WSW,253,0.0,0.0,94,0.00,,---,0.00,VWS V14.01,2013-08-22 09:27:00,
2013-08-22 02:32:00,53.9,52.2,29.89,WSW,253,0.0,0.0,94,0.00,,---,0.00,VWS V14.01,2013-08-22 09:32:00,
2013-08-22 02:37:00,53.6,51.9,29.89,WSW,253,0.0,0.0,94,0.00,,---,0.00,VWS V14.01,2013-08-22 09:37:00,
2013-08-22 02:43:00,53.5,51.8,29.89,WSW,253,0.0,0.0,94,0.00,,---,0.00,VWS V14.01,2013-08-22 09:43:00,
2013-08-22 02:48:00,53.6,52.2,29.89,WSW,253,0.0,0.0,95,0.00,,---,0.00,VWS V14.01,2013-08-22 09:48:00,
2013-08-22 02:53:00,53.6,52.2,29.89,WSW,253,0.0,0.0,95,0.00,,---,0.00,VWS V14.01,2013-08-22 09:53:00,
2013-08-22 02:58:00,53.6,52.2,29.89,WSW,253,0.0,0.0,95,0.00,,---,0.00,VWS V14.01,2013-08-22 09:58:00,
2013-08-22 03:03:00,53.8,52.4,29.89,WSW,253,0.0,0.0,95,0.00,,---,0.00,VWS V14.01,2013-08-22 10:03:00,
2013-08-22 03:08:00,53.8,52.4,29.88,WSW,253,0.0,0.0,95,0.00,,---,0.00,VWS V14.01,2013-08-22 10:08:00,
2013-08-22 03:13:00,53.8,52.4,29.88,WSW,253,0.0,0.0,95,0.00,,---,0.00,VWS V14.01,2013-08-22 10:13:00,
2013-08-22 03:18:00,53.8,52.4,29.88,WSW,253,0.0,0.0,95,0.00,,---,0.00,VWS V14.01,2013-08-22 10:18:00,
2013-08-22 03:23:00,53.6,52.2,29.89,WSW,253,0.0,0.0,95,0.00,,---,0.00,VWS V14.01,2013-08-22 10:23:00,
2013-08-22 03:28:00,53.3,51.9,29.89,WSW,253,0.0,0.0,95,0.00,,---,0.00,VWS V14.01,2013-08-22 10:28:00,
2013-08-22 03:33:00,53.2,51.8,29.89,WSW,253,0.0,0.0,95,0.00,,---,0.00,VWS V14.01,2013-08-22 10:33:00,
2013-08-22 03:38:00,53.2,51.8,29.89,WSW,253,0.0,0.0,95,0.00,,---,0.00,VWS V14.01,2013-08-22 10:38:00,
2013-08-22 03:43:00,53.3,51.9,29.89,WSW,253,0.0,0.0,95,0.00,,---,0.00,VWS V14.01,2013-08-22 10:43:00,
2013-08-22 03:48:00,53.2,51.8,29.89,WSW,253,0.0,0.0,95,0.00,,---,0.00,VWS V14.01,2013-08-22 10:48:00,
2013-08-22 05:27:00,52.0,51.0,29.89,WSW,253,0.0,-999.0,96,-99.99,,,0.00,weatherlink.com 1.10,2013-08-22 12:27:00,
2013-08-22 05:32:00,52.0,50.9,29.89,WSW,253,0.0,0.0,96,0.00,,---,0.00,VWS V14.01,2013-08-22 12:32:00,
2013-08-22 05:37:00,52.0,50.9,29.89,WSW,253,0.0,0.0,96,0.00,,---,0.00,VWS V14.01,2013-08-22 12:37:00,
2013-08-22 05:42:00,52.0,50.9,29.89,WSW,253,0.0,0.0,96,0.00,,---,0.00,VWS V14.01,2013-08-22 12:42:00,
2013-08-22 05:47:00,52.2,51.1,29.89,WSW,253,0.0,0.0,96,0.00,,---,0.00,VWS V14.01,2013-08-22 12:47:00,
2013-08-22 05:52:00,52.5,51.4,29.89,WSW,253,0.0,0.0,96,0.00,,---,0.00,VWS V14.01,2013-08-22 12:52:00,
2013-08-22 05:57:00,52.8,51.7,29.89,WSW,253,0.0,0.0,96,0.00,,---,0.00,VWS V14.01,2013-08-22 12:57:00,
2013-08-22 06:00:00,52.9,51.8,29.89,WSW,253,0.0,0.0,96,0.00,,---,0.00,VWS V14.01,2013-08-22 13:00:00,
2013-08-22 06:05:00,53.2,52.1,29.89,WSW,253,0.0,0.0,96,0.00,,---,0.00,VWS V14.01,2013-08-22 13:05:00,
2013-08-22 06:10:00,53.5,52.4,29.89,WSW,253,0.0,0.0,96,0.00,,---,0.00,VWS V14.01,2013-08-22 13:10:00,
2013-08-22 06:15:00,53.5,52.4,29.89,WSW,253,0.0,0.0,96,0.00,,---,0.00,VWS V14.01,2013-08-22 13:15:00,
2013-08-22 06:20:00,53.6,52.5,29.89,WSW,253,0.0,0.0,96,0.00,,---,0.00,VWS V14.01,2013-08-22 13:20:00,
2013-08-22 06:26:00,53.9,52.8,29.89,WSW,253,0.0,0.0,96,0.00,,---,0.00,VWS V14.01,2013-08-22 13:26:00,
2013-08-22 06:31:00,54.1,53.3,29.89,WSW,253,0.0,0.0,97,0.00,,---,0.00,VWS V14.01,2013-08-22 13:31:00,
2013-08-22 06:36:00,54.5,53.7,29.90,WSW,253,0.0,0.0,97,0.00,,---,0.00,VWS V14.01,2013-08-22 13:36:00,
2013-08-22 06:41:00,55.1,54.3,29.90,WSW,253,0.0,0.0,97,0.00,,---,0.00,VWS V14.01,2013-08-22 13:41:00,
2013-08-22 06:46:00,55.6,54.8,29.90,WSW,253,0.0,0.0,97,0.00,,---,0.00,VWS V14.01,2013-08-22 13:46:00,
2013-08-22 06:51:00,56.0,55.2,29.91,WSW,253,0.0,0.0,97,0.00,,---,0.00,VWS V14.01,2013-08-22 13:51:00,
2013-08-22 06:56:00,56.3,55.5,29.91,WSW,253,0.0,0.0,97,0.00,,---,0.00,VWS V14.01,2013-08-22 13:56:00,
2013-08-22 07:01:00,56.5,55.7,29.91,WSW,253,0.0,0.0,97,0.00,,---,0.00,VWS V14.01,2013-08-22 14:01:00,
2013-08-22 07:06:00,56.5,55.7,29.91,WSW,253,0.0,0.0,97,0.00,,---,0.00,VWS V14.01,2013-08-22 14:06:00,
2013-08-22 07:11:00,56.5,55.7,29.91,WSW,253,0.0,0.0,97,0.00,,---,0.00,VWS V14.01,2013-08-22 14:11:00,
2013-08-22 07:16:00,56.6,55.8,29.91,WSW,253,0.0,0.0,97,0.00,,---,0.00,VWS V14.01,2013-08-22 14:16:00,
2013-08-22 07:21:00,56.6,55.8,29.91,WSW,252,0.0,0.0,97,0.00,,---,0.00,VWS V14.01,2013-08-22 14:21:00,
2013-08-22 07:26:00,56.7,55.6,29.91,WSW,253,0.0,0.0,96,0.00,,---,0.00,VWS V14.01,2013-08-22 14:26:00,
2013-08-22 07:32:00,56.7,55.6,29.91,WSW,253,0.0,0.0,96,0.00,,---,0.00,VWS V14.01,2013-08-22 14:32:00,
2013-08-22 07:37:00,56.7,55.6,29.92,WSW,253,0.0,2.0,96,0.00,,---,0.00,VWS V14.01,2013-08-22 14:37:00,
2013-08-22 07:42:00,56.7,55.6,29.92,West,259,2.0,5.0,96,0.00,,---,0.00,VWS V14.01,2013-08-22 14:42:00,
2013-08-22 07:47:00,56.7,55.6,29.92,WSW,257,3.0,5.0,96,0.00,,---,0.00,VWS V14.01,2013-08-22 14:47:00,
2013-08-22 07:52:00,56.9,55.8,29.92,West,262,3.0,5.0,96,0.00,,---,0.00,VWS V14.01,2013-08-22 14:52:00,
2013-08-22 07:57:00,56.9,55.8,29.92,West,262,0.0,5.0,96,0.00,,---,0.00,VWS V14.01,2013-08-22 14:57:00,
2013-08-22 08:02:00,57.0,55.9,29.92,West,262,0.0,5.0,96,0.00,,---,0.00,VWS V14.01,2013-08-22 15:02:00,
2013-08-22 08:07:00,57.0,55.9,29.93,WSW,257,0.0,2.0,96,0.00,,---,0.00,VWS V14.01,2013-08-22 15:07:00,
2013-08-22 08:12:00,57.0,55.9,29.93,WSW,256,0.0,5.0,96,0.00,,---,0.00,VWS V14.01,2013-08-22 15:12:00,
2013-08-22 08:17:00,57.2,56.1,29.93,West,260,0.0,5.0,96,0.00,,---,0.00,VWS V14.01,2013-08-22 15:17:00,
2013-08-22 08:22:00,57.2,56.1,29.93,WSW,246,0.0,5.0,96,0.00,,---,0.00,VWS V14.01,2013-08-22 15:22:00,
2013-08-22 08:28:00,57.5,56.4,29.93,WSW,246,0.0,5.0,96,0.00,,---,0.00,VWS V14.01,2013-08-22 15:28:00,
2013-08-22 08:33:00,57.6,56.2,29.93,WSW,246,0.0,5.0,95,0.00,,---,0.00,VWS V14.01,2013-08-22 15:33:00,
2013-08-22 08:38:00,57.8,56.4,29.93,WSW,246,0.0,0.0,95,0.00,,---,0.00,VWS V14.01,2013-08-22 15:38:00,
2013-08-22 08:43:00,57.8,56.4,29.93,WSW,246,1.0,2.0,95,0.00,,---,0.00,VWS V14.01,2013-08-22 15:43:00,
2013-08-22 08:48:00,58.1,56.4,29.93,WSW,246,0.0,2.0,94,0.00,,---,0.00,VWS V14.01,2013-08-22 15:48:00,
2013-08-22 08:53:00,58.4,56.7,29.93,WSW,246,0.0,2.0,94,0.00,,---,0.00,VWS V14.01,2013-08-22 15:53:00,
2013-08-22 08:58:00,58.6,56.6,29.93,WSW,246,1.0,3.0,93,0.00,,---,0.00,VWS V14.01,2013-08-22 15:58:00,
2013-08-22 09:03:00,58.9,56.9,29.93,WSW,246,0.0,3.0,93,0.00,,---,0.00,VWS V14.01,2013-08-22 16:03:00,
2013-08-22 09:08:00,59.3,57.0,29.94,WSW,246,0.0,0.0,92,0.00,,---,0.00,VWS V14.01,2013-08-22 16:08:00,
2013-08-22 09:13:00,59.6,57.3,29.94,WSW,247,0.0,4.0,92,0.00,,---,0.00,VWS V14.01,2013-08-22 16:13:00,
2013-08-22 09:18:00,59.8,57.2,29.94,WSW,254,0.0,4.0,91,0.00,,---,0.00,VWS V14.01,2013-08-22 16:18:00,
2013-08-22 09:23:00,59.9,57.0,29.94,WSW,254,0.0,4.0,90,0.00,,---,0.00,VWS V14.01,2013-08-22 16:23:00,
2013-08-22 09:28:00,60.1,56.8,29.94,WSW,254,0.0,4.0,89,0.00,,---,0.00,VWS V14.01,2013-08-22 16:28:00,
2013-08-22 09:33:00,60.2,57.0,29.94,WSW,254,0.0,4.0,89,0.00,,---,0.00,VWS V14.01,2013-08-22 16:33:00,
2013-08-22 09:38:00,60.2,56.6,29.94,WSW,254,1.0,2.0,88,0.00,,---,0.00,VWS V14.01,2013-08-22 16:38:00,
2013-08-22 09:44:00,60.5,56.6,29.94,WSW,254,0.0,3.0,87,0.00,,---,0.00,VWS V14.01,2013-08-22 16:44:00,
2013-08-22 09:49:00,61.0,56.8,29.94,West,261,4.0,5.0,86,0.00,,---,0.00,VWS V14.01,2013-08-22 16:49:00,
2013-08-22 09:54:00,61.2,56.3,29.94,West,275,5.0,6.0,84,0.00,,---,0.00,VWS V14.01,2013-08-22 16:54:00,
2013-08-22 09:59:00,61.6,56.4,29.94,West,281,0.0,6.0,83,0.00,,---,0.00,VWS V14.01,2013-08-22 16:59:00,
2013-08-22 10:04:00,62.1,56.5,29.94,West,276,0.0,6.0,82,0.00,,---,0.00,VWS V14.01,2013-08-22 17:04:00,
2013-08-22 10:09:00,62.6,56.7,29.94,West,267,1.0,4.0,81,0.00,,---,0.00,VWS V14.01,2013-08-22 17:09:00,
2013-08-22 10:14:00,62.9,56.6,29.94,SW,215,0.0,5.0,80,0.00,,---,0.00,VWS V14.01,2013-08-22 17:14:00,
2013-08-22 10:19:00,63.2,56.9,29.94,WNW,293,0.0,5.0,80,0.00,,---,0.00,VWS V14.01,2013-08-22 17:19:00,
2013-08-22 10:24:00,63.5,56.5,29.94,WSW,257,0.0,6.0,78,0.00,,---,0.00,VWS V14.01,2013-08-22 17:24:00,
2013-08-22 10:29:00,63.5,56.2,29.94,WSW,252,0.0,6.0,77,0.00,,---,0.00,VWS V14.01,2013-08-22 17:29:00,
2013-08-22 10:34:00,63.7,56.4,29.94,West,263,2.0,6.0,77,0.00,,---,0.00,VWS V14.01,2013-08-22 17:34:00,
2013-08-22 10:40:00,63.7,56.0,29.94,WSW,251,3.0,-999.0,77,-99.99,,,0.00,weatherlink.com 1.10,2013-08-22 17:40:00,
2013-08-22 10:45:00,64.0,56.7,29.94,West,260,0.0,6.0,77,0.00,,---,0.00,VWS V14.01,2013-08-22 17:45:00,
2013-08-22 10:50:00,64.5,56.4,29.94,NW,325,0.0,6.0,75,0.00,,---,0.00,VWS V14.01,2013-08-22 17:50:00,
2013-08-22 10:55:00,64.7,56.2,29.94,WSW,251,0.0,7.0,74,0.00,,---,0.00,VWS V14.01,2013-08-22 17:55:00,
2013-08-22 11:00:00,64.7,56.2,29.94,WSW,244,0.0,7.0,74,0.00,,---,0.00,VWS V14.01,2013-08-22 18:00:00,
2013-08-22 11:05:00,64.7,56.2,29.94,WSW,248,0.0,7.0,74,0.00,,---,0.00,VWS V14.01,2013-08-22 18:05:00,
2013-08-22 11:10:00,65.0,56.2,29.94,WNW,282,0.0,5.0,73,0.00,,---,0.00,VWS V14.01,2013-08-22 18:10:00,
2013-08-22 11:15:00,65.5,56.2,29.94,WNW,290,0.0,5.0,72,0.00,,---,0.00,VWS V14.01,2013-08-22 18:15:00,
2013-08-22 11:20:00,65.8,56.2,29.94,WSW,246,0.0,6.0,71,0.00,,---,0.00,VWS V14.01,2013-08-22 18:20:00,
2013-08-22 11:25:00,66.1,56.4,29.94,NW,309,0.0,7.0,71,0.00,,---,0.00,VWS V14.01,2013-08-22 18:25:00,
2013-08-22 11:30:00,66.3,56.2,29.94,WNW,296,0.0,7.0,70,0.00,,---,0.00,VWS V14.01,2013-08-22 18:30:00,
2013-08-22 11:35:00,66.8,56.7,29.94,West,279,0.0,0.0,70,0.00,,---,0.00,VWS V14.01,2013-08-22 18:35:00,
2013-08-22 11:40:00,67.4,56.1,29.94,WNW,301,0.0,5.0,67,0.00,,---,0.00,VWS V14.01,2013-08-22 18:40:00,
2013-08-22 11:45:00,67.9,56.5,29.94,West,281,1.0,5.0,67,0.00,,---,0.00,VWS V14.01,2013-08-22 18:45:00,
2013-08-22 11:51:00,68.9,56.7,29.92,WNW,282,6.0,6.0,65,0.00,,---,0.00,VWS V14.01,2013-08-22 18:51:00,
2013-08-22 11:56:00,69.1,56.4,29.92,NW,320,0.0,6.0,64,0.00,,---,0.00,VWS V14.01,2013-08-22 18:56:00,
2013-08-22 12:01:00,69.4,56.3,29.92,West,279,0.0,6.0,63,0.00,,---,0.00,VWS V14.01,2013-08-22 19:01:00,
2013-08-22 12:06:00,70.3,57.1,29.92,West,267,2.0,5.0,63,0.00,,---,0.00,VWS V14.01,2013-08-22 19:06:00,
2013-08-22 12:11:00,71.1,57.0,29.92,NNW,328,0.0,5.0,61,0.00,,---,0.00,VWS V14.01,2013-08-22 19:11:00,
2013-08-22 12:16:00,71.6,56.5,29.92,SW,228,4.0,7.0,59,0.00,,---,0.00,VWS V14.01,2013-08-22 19:16:00,
2013-08-22 12:21:00,71.8,56.7,29.92,WNW,282,0.0,7.0,59,0.00,,---,0.00,VWS V14.01,2013-08-22 19:21:00,
2013-08-22 12:26:00,72.5,56.9,29.92,SW,221,6.0,9.0,58,0.00,,---,0.00,VWS V14.01,2013-08-22 19:26:00,
2013-08-22 12:31:00,72.5,56.4,29.92,SW,221,0.0,9.0,57,0.00,,---,0.00,VWS V14.01,2013-08-22 19:31:00,
2013-08-22 12:36:00,71.3,56.2,29.92,SSW,213,5.0,6.0,59,0.00,,---,0.00,VWS V14.01,2013-08-22 19:36:00,
2013-08-22 12:41:00,70.6,55.6,29.92,WSW,242,4.0,8.0,59,0.00,,---,0.00,VWS V14.01,2013-08-22 19:41:00,
2013-08-22 12:46:00,70.9,55.9,29.92,SSW,197,6.0,8.0,59,0.00,,---,0.00,VWS V14.01,2013-08-22 19:46:00,
2013-08-22 12:51:00,71.1,56.1,29.91,West,265,4.0,8.0,59,0.00,,---,0.00,VWS V14.01,2013-08-22 19:51:00,
2013-08-22 12:57:00,72.1,56.5,29.91,West,280,1.0,8.0,58,0.00,,---,0.00,VWS V14.01,2013-08-22 19:57:00,
2013-08-22 13:02:00,72.7,55.6,29.91,South,186,1.0,9.0,55,0.00,,---,0.00,VWS V14.01,2013-08-22 20:02:00,
2013-08-22 13:07:00,72.3,56.2,29.91,WSW,239,5.0,5.0,57,0.00,,---,0.00,VWS V14.01,2013-08-22 20:07:00,
2013-08-22 13:12:00,72.7,55.6,29.91,WSW,251,4.0,6.0,55,0.00,,---,0.00,VWS V14.01,2013-08-22 20:12:00,
2013-08-22 13:17:00,73.2,56.6,29.91,West,267,3.0,7.0,56,0.00,,---,0.00,VWS V14.01,2013-08-22 20:17:00,
2013-08-22 13:22:00,73.9,56.2,29.91,WNW,288,0.0,7.0,54,0.00,,---,0.00,VWS V14.01,2013-08-22 20:22:00,
2013-08-22 13:27:00,74.2,56.0,29.91,SW,221,0.0,7.0,53,0.00,,---,0.00,VWS V14.01,2013-08-22 20:27:00,
2013-08-22 13:32:00,74.6,56.4,29.91,West,275,0.0,7.0,53,0.00,,---,0.00,VWS V14.01,2013-08-22 20:32:00,
2013-08-22 13:37:00,74.6,55.8,29.91,NNW,328,0.0,3.0,52,0.00,,---,0.00,VWS V14.01,2013-08-22 20:37:00,
2013-08-22 13:42:00,75.3,56.5,29.91,West,262,6.0,6.0,52,0.00,,---,0.00,VWS V14.01,2013-08-22 20:42:00,
2013-08-22 13:47:00,75.8,56.4,29.91,SW,236,5.0,6.0,51,0.00,,---,0.00,VWS V14.01,2013-08-22 20:47:00,
2013-08-22 13:52:00,75.4,56.6,29.90,NW,305,0.0,6.0,52,0.00,,---,0.00,VWS V14.01,2013-08-22 20:52:00,
2013-08-22 13:58:00,75.4,57.1,29.90,West,265,0.0,6.0,53,0.00,,---,0.00,VWS V14.01,2013-08-22 20:58:00,
2013-08-22 14:03:00,75.8,56.9,29.90,WSW,246,0.0,7.0,52,0.00,,---,0.00,VWS V14.01,2013-08-22 21:03:00,
2013-08-22 14:08:00,75.8,56.9,29.90,West,265,0.0,7.0,52,0.00,,---,0.00,VWS V14.01,2013-08-22 21:08:00,
2013-08-22 14:13:00,75.3,57.0,29.90,WSW,246,0.0,7.0,53,0.00,,---,0.00,VWS V14.01,2013-08-22 21:13:00,
2013-08-22 14:18:00,75.4,57.1,29.90,WSW,240,0.0,9.0,53,0.00,,---,0.00,VWS V14.01,2013-08-22 21:18:00,
2013-08-22 14:23:00,75.3,57.5,29.90,WNW,290,6.0,9.0,54,0.00,,---,0.00,VWS V14.01,2013-08-22 21:23:00,
2013-08-22 14:28:00,75.4,57.1,29.90,WSW,250,2.0,9.0,53,0.00,,---,0.00,VWS V14.01,2013-08-22 21:28:00,
2013-08-22 14:33:00,74.9,57.2,29.90,WNW,299,2.0,11.0,54,0.00,,---,0.00,VWS V14.01,2013-08-22 21:33:00,
2013-08-22 14:38:00,75.3,57.0,29.90,WNW,288,5.0,10.0,53,0.00,,---,0.00,VWS V14.01,2013-08-22 21:38:00,
2013-08-22 14:43:00,75.1,56.8,29.90,WNW,294,6.0,10.0,53,0.00,,---,0.00,VWS V14.01,2013-08-22 21:43:00,
2013-08-22 14:48:00,74.6,57.4,29.90,West,280,0.0,10.0,55,0.00,,---,0.00,VWS V14.01,2013-08-22 21:48:00,
2013-08-22 14:54:00,74.9,56.6,29.89,NW,319,0.0,10.0,53,0.00,,---,0.00,VWS V14.01,2013-08-22 21:54:00,
2013-08-22 14:59:00,74.9,57.7,29.89,SSW,213,1.0,10.0,55,0.00,,---,0.00,VWS V14.01,2013-08-22 21:59:00,
2013-08-22 15:04:00,75.1,57.3,29.89,WSW,250,2.0,10.0,54,0.00,,---,0.00,VWS V14.01,2013-08-22 22:04:00,
2013-08-22 15:09:00,74.4,56.7,29.89,WSW,243,7.0,10.0,54,0.00,,---,0.00,VWS V14.01,2013-08-22 22:09:00,
2013-08-22 15:14:00,74.0,56.3,29.89,West,281,0.0,10.0,54,0.00,,---,0.00,VWS V14.01,2013-08-22 22:14:00,
2013-08-22 15:19:00,74.2,56.5,29.89,West,277,0.0,11.0,54,0.00,,---,0.00,VWS V14.01,2013-08-22 22:19:00,
2013-08-22 15:24:00,74.4,56.7,29.89,West,267,0.0,11.0,54,0.00,,---,0.00,VWS V14.01,2013-08-22 22:24:00,
2013-08-22 15:29:00,74.4,56.2,29.89,West,259,0.0,11.0,53,0.00,,---,0.00,VWS V14.01,2013-08-22 22:29:00,
2013-08-22 15:34:00,73.9,56.7,29.89,West,269,10.0,11.0,55,0.00,,---,0.00,VWS V14.01,2013-08-22 22:34:00,
2013-08-22 15:39:00,73.5,56.4,29.89,West,259,3.0,11.0,55,0.00,,---,0.00,VWS V14.01,2013-08-22 22:39:00,
2013-08-22 15:44:00,73.5,56.4,29.89,WSW,250,3.0,12.0,55,0.00,,---,0.00,VWS V14.01,2013-08-22 22:44:00,
2013-08-22 15:49:00,73.3,56.7,29.89,WSW,243,0.0,12.0,56,0.00,,---,0.00,VWS V14.01,2013-08-22 22:49:00,
2013-08-22 15:54:00,73.2,56.6,29.89,WSW,244,5.0,12.0,56,0.00,,---,0.00,VWS V14.01,2013-08-22 22:54:00,
2013-08-22 16:00:00,72.7,56.6,29.89,SSW,209,0.0,12.0,57,0.00,,---,0.00,VWS V14.01,2013-08-22 23:00:00,
2013-08-22 16:05:00,72.7,56.1,29.88,WSW,251,2.0,12.0,56,0.00,,---,0.00,VWS V14.01,2013-08-22 23:05:00,
2013-08-22 16:10:00,73.2,56.6,29.88,West,273,5.0,10.0,56,0.00,,---,0.00,VWS V14.01,2013-08-22 23:10:00,
2013-08-22 16:15:00,73.2,56.6,29.88,West,271,0.0,10.0,56,0.00,,---,0.00,VWS V14.01,2013-08-22 23:15:00,
2013-08-22 16:20:00,73.0,56.4,29.88,WNW,286,4.0,12.0,56,0.00,,---,0.00,VWS V14.01,2013-08-22 23:20:00,
2013-08-22 16:25:00,72.5,56.9,29.88,WSW,251,2.0,12.0,58,0.00,,---,0.00,VWS V14.01,2013-08-22 23:25:00,
2013-08-22 16:30:00,72.3,56.2,29.88,WSW,254,6.0,12.0,57,0.00,,---,0.00,VWS V14.01,2013-08-22 23:30:00,
2013-08-22 16:35:00,71.8,56.2,29.88,SSW,213,2.0,6.0,58,0.00,,---,0.00,VWS V14.01,2013-08-22 23:35:00,
2013-08-22 16:40:00,71.5,56.4,29.88,SW,229,5.0,12.0,59,0.00,,---,0.00,VWS V14.01,2013-08-22 23:40:00,
2013-08-22 16:45:00,70.8,56.7,29.88,SW,235,0.0,12.0,61,0.00,,---,0.00,VWS V14.01,2013-08-22 23:45:00,
2013-08-22 16:50:00,70.4,56.3,29.88,WSW,258,10.0,12.0,61,0.00,,---,0.00,VWS V14.01,2013-08-22 23:50:00,
2013-08-22 16:55:00,70.3,56.7,29.88,WSW,243,7.0,12.0,62,0.00,,---,0.00,VWS V14.01,2013-08-22 23:55:00,
2013-08-22 17:00:00,69.8,56.7,29.88,WNW,282,7.0,12.0,63,0.00,,---,0.00,VWS V14.01,2013-08-23 00:00:00,
2013-08-22 17:06:00,69.6,56.5,29.89,WSW,239,10.0,10.0,63,0.00,,---,0.00,VWS V14.01,2013-08-23 00:06:00,
2013-08-22 17:11:00,69.3,56.2,29.89,WSW,245,0.0,10.0,63,0.00,,---,0.00,VWS V14.01,2013-08-23 00:11:00,
2013-08-22 17:16:00,68.9,56.2,29.89,WSW,240,10.0,10.0,64,0.00,,---,0.00,VWS V14.01,2013-08-23 00:16:00,
2013-08-22 17:21:00,69.1,56.0,29.89,WSW,254,6.0,10.0,63,0.00,,---,0.00,VWS V14.01,2013-08-23 00:21:00,
2013-08-22 17:26:00,68.8,56.6,29.89,West,271,7.0,11.0,65,0.00,,---,0.00,VWS V14.01,2013-08-23 00:26:00,
2013-08-22 17:31:00,68.3,56.1,29.89,WSW,242,4.0,12.0,65,0.00,,---,0.00,VWS V14.01,2013-08-23 00:31:00,
2013-08-22 17:36:00,67.6,56.3,29.89,SSW,213,8.0,8.0,67,0.00,,---,0.00,VWS V14.01,2013-08-23 00:36:00,
2013-08-22 17:41:00,67.6,56.3,29.89,West,279,5.0,11.0,67,0.00,,---,0.00,VWS V14.01,2013-08-23 00:41:00,
2013-08-22 17:46:00,67.8,56.5,29.89,WNW,290,4.0,11.0,67,0.00,,---,0.00,VWS V14.01,2013-08-23 00:46:00,
2013-08-22 17:51:00,67.6,56.3,29.89,West,267,4.0,11.0,67,0.00,,---,0.00,VWS V14.01,2013-08-23 00:51:00,
2013-08-22 17:57:00,67.3,56.4,29.89,WSW,242,6.0,11.0,68,0.00,,---,0.00,VWS V14.01,2013-08-23 00:57:00,
2013-08-22 18:02:00,66.8,56.7,29.89,West,261,1.0,11.0,70,0.00,,---,0.00,VWS V14.01,2013-08-23 01:02:00,
2013-08-22 18:07:00,66.6,56.5,29.89,WSW,250,6.0,6.0,70,0.00,,---,0.00,VWS V14.01,2013-08-23 01:07:00,
2013-08-22 18:12:00,66.3,56.6,29.89,WNW,283,7.0,7.0,71,0.00,,---,0.00,VWS V14.01,2013-08-23 01:12:00,
2013-08-22 18:17:00,65.6,56.3,29.89,NW,306,0.0,8.0,72,0.00,,---,0.00,VWS V14.01,2013-08-23 01:17:00,
2013-08-22 18:22:00,65.0,56.2,29.88,WSW,247,5.0,8.0,73,0.00,,---,0.00,VWS V14.01,2013-08-23 01:22:00,
2013-08-22 18:27:00,64.8,56.3,29.88,West,266,0.0,8.0,74,0.00,,---,0.00,VWS V14.01,2013-08-23 01:27:00,
2013-08-22 18:32:00,64.7,56.2,29.88,SW,236,3.0,9.0,74,0.00,,---,0.00,VWS V14.01,2013-08-23 01:32:00,
2013-08-22 18:37:00,64.3,55.8,29.88,West,271,5.0,5.0,74,0.00,,---,0.00,VWS V14.01,2013-08-23 01:37:00,
2013-08-22 18:42:00,63.9,55.8,29.88,WSW,247,7.0,10.0,75,0.00,,---,0.00,VWS V14.01,2013-08-23 01:42:00,
2013-08-22 18:47:00,63.5,55.8,29.88,WNW,286,7.0,10.0,76,0.00,,---,0.00,VWS V14.01,2013-08-23 01:47:00,
2013-08-22 18:53:00,63.4,55.7,29.88,West,271,6.0,10.0,76,0.00,,---,0.00,VWS V14.01,2013-08-23 01:53:00,
2013-08-22 18:58:00,63.4,55.7,29.88,West,264,6.0,10.0,76,0.00,,---,0.00,VWS V14.01,2013-08-23 01:58:00,
2013-08-22 19:03:00,63.2,55.5,29.88,WSW,253,0.0,10.0,76,0.00,,---,0.00,VWS V14.01,2013-08-23 02:03:00,
2013-08-22 19:08:00,63.2,55.9,29.88,WSW,249,4.0,7.0,77,0.00,,---,0.00,VWS V14.01,2013-08-23 02:08:00,
2013-08-22 19:13:00,63.1,55.8,29.88,WSW,246,4.0,9.0,77,0.00,,---,0.00,VWS V14.01,2013-08-23 02:13:00,
2013-08-22 19:18:00,62.6,55.7,29.88,WSW,254,3.0,9.0,78,0.00,,---,0.00,VWS V14.01,2013-08-23 02:18:00,
2013-08-22 19:23:00,62.4,55.5,29.88,West,259,0.0,9.0,78,0.00,,---,0.00,VWS V14.01,2013-08-23 02:23:00,
2013-08-22 19:28:00,62.3,55.7,29.88,WSW,254,0.0,9.0,79,0.00,,---,0.00,VWS V14.01,2013-08-23 02:28:00,
2013-08-22 19:33:00,62.1,55.5,29.88,SW,224,0.0,9.0,79,0.00,,---,0.00,VWS V14.01,2013-08-23 02:33:00,
2013-08-22 19:38:00,62.0,55.8,29.89,WNW,288,0.0,4.0,80,0.00,,---,0.00,VWS V14.01,2013-08-23 02:38:00,
2013-08-22 19:43:00,61.8,55.6,29.89,West,263,0.0,5.0,80,0.00,,---,0.00,VWS V14.01,2013-08-23 02:43:00,
2013-08-22 19:48:00,61.6,55.7,29.89,SSW,194,0.0,5.0,81,0.00,,---,0.00,VWS V14.01,2013-08-23 02:48:00,
2013-08-22 19:53:00,61.3,55.4,29.89,WNW,288,0.0,5.0,81,0.00,,---,0.00,VWS V14.01,2013-08-23 02:53:00,
2013-08-22 19:59:00,61.2,55.7,29.89,West,269,0.0,5.0,82,0.00,,---,0.00,VWS V14.01,2013-08-23 02:59:00,
2013-08-22 20:04:00,61.0,55.8,29.89,West,269,0.0,5.0,83,0.00,,---,0.00,VWS V14.01,2013-08-23 03:04:00,
2013-08-22 20:09:00,60.9,55.7,29.89,WSW,256,0.0,3.0,83,0.00,,---,0.00,VWS V14.01,2013-08-23 03:09:00,
2013-08-22 20:14:00,60.7,55.5,29.89,WSW,256,0.0,3.0,83,0.00,,---,0.00,VWS V14.01,2013-08-23 03:14:00,
2013-08-22 20:19:00,60.7,55.5,29.89,WSW,256,0.0,3.0,83,0.00,,---,0.00,VWS V14.01,2013-08-23 03:19:00,
2013-08-22 20:24:00,60.5,55.7,29.89,WSW,256,0.0,3.0,84,0.00,,---,0.00,VWS V14.01,2013-08-23 03:24:00,
2013-08-22 20:29:00,60.4,55.5,29.89,SW,232,0.0,3.0,84,0.00,,---,0.00,VWS V14.01,2013-08-23 03:29:00,
2013-08-22 20:34:00,60.2,55.7,29.89,SW,214,0.0,3.0,85,0.00,,---,0.00,VWS V14.01,2013-08-23 03:34:00,
2013-08-22 20:39:00,60.1,55.6,29.89,SW,214,0.0,0.0,85,0.00,,---,0.00,VWS V14.01,2013-08-23 03:39:00,
2013-08-22 20:44:00,59.9,55.4,29.89,SSW,206,0.0,2.0,85,0.00,,---,0.00,VWS V14.01,2013-08-23 03:44:00,
2013-08-22 20:49:00,59.9,55.7,29.89,SSW,197,0.0,4.0,86,0.00,,---,0.00,VWS V14.01,2013-08-23 03:49:00,
2013-08-22 20:54:00,59.8,55.6,29.90,SSW,213,0.0,4.0,86,0.00,,---,0.00,VWS V14.01,2013-08-23 03:54:00,
2013-08-22 20:59:00,59.6,55.4,29.90,SW,223,2.0,5.0,86,0.00,,---,0.00,VWS V14.01,2013-08-23 03:59:00,
2013-08-22 21:01:00,59.6,55.4,29.90,SW,223,0.0,5.0,86,0.00,,---,0.00,VWS V14.01,2013-08-23 04:01:00,
2013-08-22 21:06:00,59.6,55.4,29.91,SW,221,0.0,0.0,86,0.00,,---,0.00,VWS V14.01,2013-08-23 04:06:00,
2013-08-22 21:11:00,59.5,55.3,29.91,SSW,203,0.0,4.0,86,0.00,,---,0.00,VWS V14.01,2013-08-23 04:11:00,
2013-08-22 21:17:00,59.3,55.1,29.91,SSW,204,0.0,4.0,86,0.00,,---,0.00,VWS V14.01,2013-08-23 04:17:00,
2013-08-22 21:22:00,59.3,55.4,29.91,SSW,204,0.0,4.0,87,0.00,,---,0.00,VWS V14.01,2013-08-23 04:22:00,
2013-08-22 21:27:00,59.3,55.4,29.91,SSW,204,0.0,4.0,87,0.00,,---,0.00,VWS V14.01,2013-08-23 04:27:00,
2013-08-22 21:32:00,59.2,55.3,29.91,SSW,204,0.0,4.0,87,0.00,,---,0.00,VWS V14.01,2013-08-23 04:32:00,
2013-08-22 21:37:00,59.0,55.1,29.91,SSW,204,0.0,0.0,87,0.00,,---,0.00,VWS V14.01,2013-08-23 04:37:00,
2013-08-22 21:42:00,58.9,55.0,29.91,SSW,204,0.0,0.0,87,0.00,,---,0.00,VWS V14.01,2013-08-23 04:42:00,
2013-08-22 21:47:00,58.7,54.8,29.91,SSW,204,0.0,0.0,87,0.00,,---,0.00,VWS V14.01,2013-08-23 04:47:00,
2013-08-22 21:52:00,58.6,54.8,29.91,SSW,204,0.0,0.0,87,0.00,,---,0.00,VWS V14.01,2013-08-23 04:52:00,
2013-08-22 21:57:00,58.4,54.5,29.91,SSW,204,0.0,0.0,87,0.00,,---,0.00,VWS V14.01,2013-08-23 04:57:00,
2013-08-22 22:02:00,58.1,54.6,29.91,SSW,204,0.0,0.0,88,0.00,,---,0.00,VWS V14.01,2013-08-23 05:02:00,
2013-08-22 22:07:00,57.8,54.3,29.90,SSW,204,0.0,0.0,88,0.00,,---,0.00,VWS V14.01,2013-08-23 05:07:00,
2013-08-22 22:12:00,57.5,54.3,29.90,SSW,204,0.0,0.0,89,0.00,,---,0.00,VWS V14.01,2013-08-23 05:12:00,
2013-08-22 22:17:00,57.3,54.1,29.90,SSW,204,0.0,0.0,89,0.00,,---,0.00,VWS V14.01,2013-08-23 05:17:00,
2013-08-22 22:22:00,57.3,54.1,29.91,SSW,204,0.0,0.0,89,0.00,,---,0.00,VWS V14.01,2013-08-23 05:22:00,
2013-08-22 22:28:00,57.2,54.3,29.91,SSW,203,0.0,0.0,90,0.00,,---,0.00,VWS V14.01,2013-08-23 05:28:00,
2013-08-22 22:33:00,57.2,54.3,29.91,SSW,204,0.0,0.0,90,0.00,,---,0.00,VWS V14.01,2013-08-23 05:33:00,
2013-08-22 22:38:00,57.6,55.0,29.90,SSW,203,0.0,0.0,91,0.00,,---,0.00,VWS V14.01,2013-08-23 05:38:00,
2013-08-22 22:43:00,57.8,54.9,29.90,SSW,203,0.0,0.0,90,0.00,,---,0.00,VWS V14.01,2013-08-23 05:43:00,
2013-08-22 22:48:00,58.0,55.1,29.90,SSW,203,0.0,0.0,90,0.00,,---,0.00,VWS V14.01,2013-08-23 05:48:00,
2013-08-22 22:53:00,57.8,54.9,29.90,SSW,203,0.0,0.0,90,0.00,,---,0.00,VWS V14.01,2013-08-23 05:53:00,
2013-08-22 22:58:00,58.0,55.1,29.90,SSW,203,0.0,0.0,90,0.00,,---,0.00,VWS V14.01,2013-08-23 05:58:00,
2013-08-22 23:03:00,58.0,54.8,29.90,SSW,203,0.0,0.0,89,0.00,,---,0.00,VWS V14.01,2013-08-23 06:03:00,
2013-08-22 23:08:00,58.1,55.2,29.91,SSW,203,0.0,0.0,90,0.00,,---,0.00,VWS V14.01,2013-08-23 06:08:00,
2013-08-22 23:13:00,58.3,55.1,29.91,SSW,203,0.0,0.0,89,0.00,,---,0.00,VWS V14.01,2013-08-23 06:13:00,
2013-08-22 23:18:00,58.6,55.4,29.91,SSW,203,0.0,0.0,89,0.00,,---,0.00,VWS V14.01,2013-08-23 06:18:00,
2013-08-22 23:23:00,58.7,55.5,29.91,SSW,203,0.0,0.0,89,0.00,,---,0.00,VWS V14.01,2013-08-23 06:23:00,
2013-08-22 23:28:00,58.9,55.7,29.91,SSW,203,0.0,0.0,89,0.00,,---,0.00,VWS V14.01,2013-08-23 06:28:00,
2013-08-22 23:33:00,59.0,55.8,29.91,SSW,204,0.0,0.0,89,0.00,,---,0.00,VWS V14.01,2013-08-23 06:33:00,
2013-08-22 23:39:00,59.0,55.5,29.91,North,5,2.0,5.0,88,0.00,,---,0.00,VWS V14.01,2013-08-23 06:39:00,
2013-08-22 23:44:00,59.2,55.7,29.91,NNE,14,0.0,5.0,88,0.00,,---,0.00,VWS V14.01,2013-08-23 06:44:00,
2013-08-22 23:49:00,59.0,55.5,29.91,North,9,0.0,5.0,88,0.00,,---,0.00,VWS V14.01,2013-08-23 06:49:00,
2013-08-22 23:54:00,59.0,55.5,29.91,North,9,0.0,5.0,88,0.00,,---,0.00,VWS V14.01,2013-08-23 06:54:00,
2013-08-22 23:59:00,58.9,55.4,29.91,NE,49,0.0,5.0,88,0.00,,---,0.00,VWS V14.01,2013-08-23 06:59:00,